Repto San Jose, Puerto Rico
Current Conditions -  °F | °C
As of 1:50 PM on Sunday 21 Dec 2014 (Local Time) from TJBQ Reporting Station
Clear Clear  
Wind Chill: 82°   Ceiling: Unl
Heat Index: 84°   Visibility: 10mi
Dew Point: 64°   Wind: 21mph
Humidity: 54%   Direction: 90°E
Pressure: 30.05"   Gusts: 28mph
Location:  18.4865°N, 66.8455°W
Report Text: TJBQ 211750Z 09018G24KT 10SM SKC 28/18 A3005 RMK RWY 8 ATIS C
Loading
Personal Weather Stations






























Interactive Weather Map New forecast layout! Learn more

10-Day Weather Forecast

Advertisements
Track Severe Weather on mobile